Nearby METAR Reports

 

KALB - Albany, New York, USA
Distance from station: E 47mi, 75km
Updated: Mon, 18-Feb-2019 9:51pm EST
Few Clouds
Few Clouds
 Wind from N
Wind: N 7 mph , 11 km/h
Temperature: 18°F , -8°C
Wind Chill: 9°F , -13°C
Dew Point: 7°F , -14°C
Humidity: 62%
Barometer: 30.31 inHg , 1026.4 hPa
Clouds: Few Clouds
Visibility: 10 miles , 16 km
Cloud details: Few Clouds 2900 ft
Few Clouds 3300 ft
2019/02/19 02:51 KALB 190251Z 35006KT 10SM FEW029 FEW033 M08/M14 A3031 RMK AO2 SNE21 SLP269 P0000 60000 T10781139 51047
KSLK - Saranac Lake, New York, USA
Distance from station: N 110mi, 177km
Updated: Mon, 18-Feb-2019 9:51pm EST
Clear
Clear
 Wind from SW
Wind: SW 3 mph , 6 km/h
Temperature: 7°F , -14°C
Dew Point: -0°F , -18°C
Humidity: 72%
Barometer: 30.17 inHg , 1021.7 hPa
Clouds: Clear
Visibility: 10 miles , 16 km
2019/02/19 02:51 KSLK 190251Z AUTO 23003KT 10SM CLR M14/M18 A3017 RMK AO2 SLP252 T11391183 51031
 
KSYR - Syracuse, New York, USA
Distance from station: W 73mi, 117km
Updated: Mon, 18-Feb-2019 9:54pm EST
Light snow, Overcast
Light snow, Overcast
 Wind from WSW
Wind: WSW 12 mph , 19 km/h
Temperature: 19°F , -7°C
Wind Chill: 6°F , -14°C
Dew Point: 16°F , -9°C
Humidity: 86%
Barometer: 30.35 inHg , 1027.8 hPa
Summary: Light Snow
Clouds: Overcast
Visibility: 8 miles , 13 km
Cloud details: Partly cloudy 2700 ft
Overcast 4100 ft
2019/02/19 02:54 KSYR 190254Z 25010KT 8SM -SN SCT027 OVC041 M07/M09 A3035 RMK AO2 SLP283 P0000 60000 T10721094 53026
KBGM - Binghamton, New York, USA
Distance from station: SW 78mi, 126km
Updated: Mon, 18-Feb-2019 9:53pm EST
Overcast
Overcast
 Wind from NW
Wind: NW 8 mph , 13 km/h
Temperature: 16°F , -9°C
Wind Chill: 5°F , -15°C
Dew Point: 10°F , -12°C
Humidity: 79%
Barometer: 30.25 inHg , 1024.4 hPa
Clouds: Overcast
Visibility: 10 miles , 16 km
Cloud details: Overcast 1900 ft
2019/02/19 02:53 KBGM 190253Z 31007KT 10SM OVC019 M09/M12 A3025 RMK AO2 SNE36 SLP271 P0000 60000 T10941117 53028
 
KRME - Rome, New York, USA
Distance from station: WNW 43mi, 69km
Updated: Mon, 18-Feb-2019 9:53pm EST
Mostly cloudy
Mostly cloudy
 Wind from calm
Wind: Calm
Temperature: 7°F , -14°C
Dew Point: 3°F , -16°C
Humidity: 85%
Barometer: 30.35 inHg , 1027.8 hPa
Clouds: Mostly cloudy
Visibility: 10 miles , 16 km
Cloud details: Mostly cloudy 1400 ft
2019/02/19 02:53 KRME 190253Z AUTO 00000KT 10SM BKN014 M14/M16 A3035 RMK AO2 SLP286 T11391156 51029
KJFK - New York, New York, USA
Distance from station: SSE 159mi, 256km
Updated: Mon, 18-Feb-2019 9:51pm EST
Few Clouds
Few Clouds
 Wind from NW
Wind: NW 18 mph , 30 km/h
Temperature: 28°F , -2°C
Wind Chill: 15°F , -9°C
Dew Point: 16°F , -9°C
Humidity: 59%
Barometer: 30.27 inHg , 1025.1 hPa
Clouds: Few Clouds
Visibility: 10 miles , 16 km
Cloud details: Few Clouds 4300 ft
Few Clouds 25000 ft
2019/02/19 02:51 KJFK 190251Z 31016KT 10SM FEW043 FEW250 M02/M09 A3027 RMK AO2 PK WND 31026/0214 SLP250 T10171094 51042 $
 
KROC - Rochester, New York, USA
Distance from station: W 150mi, 242km
Updated: Mon, 18-Feb-2019 9:54pm EST
Clear
Clear
 Wind from W
Wind: W 7 mph , 11 km/h
Temperature: 16°F , -9°C
Wind Chill: 6°F , -14°C
Dew Point: 7°F , -14°C
Humidity: 67%
Barometer: 30.40 inHg , 1029.5 hPa
Clouds: Clear
Visibility: 10 miles , 16 km
2019/02/19 02:54 KROC 190254Z 28006KT 10SM CLR M09/M14 A3040 RMK AO2 SLP308 T10941144 53034
KART - Watertown, New York, USA
Distance from station: NNW 103mi, 166km
Updated: Mon, 18-Feb-2019 9:56pm EST
Clear
Clear
 Wind from E
Wind: E 5 mph , 7 km/h
Temperature: -6°F , -21°C
Wind Chill: -18°F , -28°C
Dew Point: -8°F , -22°C
Humidity: 92%
Barometer: 30.36 inHg , 1028.1 hPa
Clouds: Clear
Visibility: 10 miles , 16 km
2019/02/19 02:56 KART 190256Z AUTO 09004KT 10SM CLR M21/M22 A3036 RMK AO2 SLP295 I1000 I3000 T12111217 51034
 
KELM - Elmira-Corning, New York, USA
Distance from station: SSW 121mi, 195km
Updated: Mon, 18-Feb-2019 10:08pm EST
Mostly cloudy
Mostly cloudy
 Wind from NW
Wind: NW 5 mph , 7 km/h
Temperature: 19°F , -7°C
Wind Chill: 12°F , -11°C
Dew Point: 10°F , -12°C
Humidity: 68%
Barometer: 30.36 inHg , 1028.1 hPa
Clouds: Mostly cloudy
Visibility: 10 miles , 16 km
Cloud details: Mostly cloudy 2900 ft
2019/02/19 03:08 KELM 190308Z 31004KT 10SM BKN029 M07/M12 A3036 RMK AO2 T10671122
KJHW - Jamestown, New York, USA
Distance from station: SW 238mi, 383km
Updated: Mon, 18-Feb-2019 9:56pm EST
Clear
Clear
 Wind from NW
Wind: NW 7 mph , 11 km/h
Temperature: 10°F , -12°C
Wind Chill: -1°F , -18°C
Dew Point: 7°F , -14°C
Humidity: 85%
Barometer: 30.36 inHg , 1028.1 hPa
Clouds: Clear
Visibility: 10 miles , 16 km
2019/02/19 02:56 KJHW 190256Z AUTO 31006KT 10SM CLR M12/M14 A3036 RMK AO2 SLP319 60000 T11221139 53030 FZRANO
 
KMSS - Massena, New York, USA
Distance from station: N 141mi, 232km
Updated: Mon, 18-Feb-2019 9:53pm EST
Clear
Clear
 Wind from WNW
Wind: WNW 6 mph , 9 km/h
Temperature: 10°F , -12°C
Wind Chill: 0°F , -18°C
Dew Point: 1°F , -17°C
Humidity: 67%
Barometer: 30.35 inHg , 1027.8 hPa
Clouds: Clear
Visibility: 10 miles , 16 km
2019/02/19 02:53 KMSS 190253Z AUTO 29005KT 10SM CLR M12/M17 A3035 RMK AO2 SLP287 T11221172 53037
KBUF - Buffalo, New York, USA
Distance from station: W 204mi, 328km
Updated: Mon, 18-Feb-2019 9:54pm EST
Few Clouds
Few Clouds
 Wind from NW
Wind: NW 12 mph , 19 km/h
Temperature: 18°F , -8°C
Wind Chill: 5°F , -15°C
Dew Point: 9°F , -13°C
Humidity: 68%
Barometer: 30.42 inHg , 1030.1 hPa
Clouds: Few Clouds
Visibility: 10 miles , 16 km
Cloud details: Few Clouds 1400 ft
Few Clouds 2300 ft
Few Clouds 3300 ft
2019/02/19 02:54 KBUF 190254Z 32010KT 10SM FEW014 FEW023 FEW033 M08/M13 A3042 RMK AO2 SLP314 SNE30 P0000 60000 T10781128 51035